Time;durP1;ratioP1;P1;durP2;ratioP2;P2;SDS_P1;SDS_P2;PMS_P1;PMS_P2;Temp;Humidity;BMP_temperature;BMP_pressure;BME280_temperature;BME280_humidity;BME280_pressure;Samples;Min_cycle;Max_cycle;Signal;HPM_P1;HPM_P2
2022/09/06 00:01:07;;;;;;;4.15;1.98;;;20.80;99.90;;;;;;5049016;28;20647;-61
2022/09/06 00:03:33;;;;;;;4.82;1.95;;;20.80;99.90;;;;;;5055099;28;20658;-62
2022/09/06 00:06:05;;;;;;;1.92;1.50;;;20.90;99.90;;;;;;5052050;28;20211;-61
2022/09/06 00:08:31;;;;;;;2.85;2.10;;;20.90;99.90;;;;;;5035138;28;20168;-61
2022/09/06 00:10:57;;;;;;;4.32;2.20;;;20.90;99.90;;;;;;5058978;28;20179;-61
2022/09/06 00:13:23;;;;;;;2.80;2.08;;;21.00;99.90;;;;;;5047197;28;20547;-61
2022/09/06 00:15:49;;;;;;;3.10;2.08;;;21.00;99.90;;;;;;5054483;28;20206;-61
2022/09/06 00:18:14;;;;;;;4.70;1.95;;;21.10;99.90;;;;;;5054119;28;20219;-61
2022/09/06 00:20:40;;;;;;;2.70;2.00;;;21.10;99.90;;;;;;5053410;28;20179;-61
2022/09/06 00:23:07;;;;;;;2.95;1.90;;;21.20;99.90;;;;;;5050439;28;20217;-62
2022/09/06 00:25:33;;;;;;;3.85;2.25;;;21.20;99.90;;;;;;5042835;28;20191;-61
2022/09/06 00:28:01;;;;;;;2.47;2.10;;;21.30;99.90;;;;;;5045491;28;20187;-61
2022/09/06 00:30:28;;;;;;;2.45;2.13;;;21.30;99.90;;;;;;5049305;28;20229;-62
2022/09/06 00:32:55;;;;;;;4.97;2.30;;;21.30;99.90;;;;;;5054703;28;20177;-61
2022/09/06 00:35:23;;;;;;;6.07;2.50;;;21.30;99.90;;;;;;5051162;28;20187;-61
2022/09/06 00:37:50;;;;;;;2.45;2.20;;;21.30;99.90;;;;;;5045892;28;20214;-61
2022/09/06 00:40:16;;;;;;;2.40;2.10;;;21.30;99.90;;;;;;5043861;28;20209;-62
2022/09/06 00:42:42;;;;;;;2.88;2.50;;;21.30;99.90;;;;;;5034524;28;20179;-62
2022/09/06 00:45:10;;;;;;;4.88;2.33;;;21.30;99.90;;;;;;5045788;28;20187;-62
2022/09/06 00:47:39;;;;;;;4.10;2.10;;;21.30;99.90;;;;;;5053532;28;20531;-62
2022/09/06 00:50:06;;;;;;;5.15;2.45;;;21.30;99.90;;;;;;5054091;28;20260;-61
2022/09/06 00:52:33;;;;;;;3.90;2.60;;;21.30;99.90;;;;;;5054495;28;20171;-62
2022/09/06 00:54:59;;;;;;;3.55;2.70;;;21.30;99.90;;;;;;5045751;28;20179;-61
2022/09/06 00:57:27;;;;;;;2.92;2.63;;;21.20;99.90;;;;;;5064964;28;20296;-61
2022/09/06 00:59:55;;;;;;;3.88;2.50;;;21.20;99.90;;;;;;5052895;28;20183;-61
2022/09/06 01:02:21;;;;;;;3.05;2.45;;;21.20;99.90;;;;;;5052963;28;20256;-62
2022/09/06 01:04:48;;;;;;;3.15;2.47;;;21.10;99.90;;;;;;5053786;28;20647;-62
2022/09/06 01:07:40;;;;;;;5.15;2.65;;;21.10;99.90;;;;;;5047997;28;20187;-61
2022/09/06 01:10:29;;;;;;;4.35;2.70;;;21.10;99.90;;;;;;5019593;28;20217;-62
2022/09/06 01:13:09;;;;;;;5.15;2.78;;;21.10;99.90;;;;;;5033929;28;20222;-61
2022/09/06 01:15:46;;;;;;;2.90;2.60;;;21.10;99.90;;;;;;5046945;28;20178;-62
2022/09/06 01:18:29;;;;;;;6.47;2.80;;;21.10;99.90;;;;;;5041821;28;20201;-61
2022/09/06 01:21:13;;;;;;;5.13;2.85;;;21.00;99.90;;;;;;5044195;28;20571;-62
2022/09/06 01:24:16;;;;;;;5.82;3.17;;;21.00;99.90;;;;;;5041904;28;20620;-62
2022/09/06 01:27:05;;;;;;;5.75;3.47;;;20.90;99.90;;;;;;5052197;28;20293;-62
2022/09/06 01:30:01;;;;;;;5.70;3.72;;;20.90;99.90;;;;;;5063106;28;20175;-62
2022/09/06 01:33:02;;;;;;;6.10;3.85;;;20.90;99.90;;;;;;5042043;28;20190;-62
2022/09/06 01:35:40;;;;;;;3.70;3.38;;;20.90;99.90;;;;;;5050281;28;20224;-61
2022/09/06 01:38:07;;;;;;;6.78;3.72;;;20.90;99.90;;;;;;5043541;28;20230;-62
2022/09/06 01:40:35;;;;;;;6.63;3.65;;;20.90;99.90;;;;;;5042085;28;20204;-62
2022/09/06 01:43:03;;;;;;;4.18;3.40;;;21.00;99.90;;;;;;5048403;28;20179;-63
2022/09/06 01:45:56;;;;;;;5.07;3.38;;;21.00;99.90;;;;;;5051742;28;20183;-62
2022/09/06 01:48:28;;;;;;;7.15;3.90;;;21.00;99.90;;;;;;5050782;28;20179;-62
2022/09/06 01:51:14;;;;;;;7.25;3.80;;;21.00;99.90;;;;;;5067481;28;20215;-62
2022/09/06 01:54:16;;;;;;;8.35;4.30;;;21.00;99.90;;;;;;5042684;28;20202;-62
2022/09/06 01:56:50;;;;;;;5.88;4.07;;;21.00;99.90;;;;;;5031791;28;20211;-62
2022/09/06 01:59:40;;;;;;;6.15;3.97;;;21.00;99.90;;;;;;5050105;28;20230;-62
2022/09/06 02:02:35;;;;;;;6.00;4.22;;;20.90;99.90;;;;;;5048071;28;20179;-62
2022/09/06 02:05:08;;;;;;;8.48;4.95;;;20.90;99.90;;;;;;5050901;28;20195;-63
2022/09/06 02:07:37;;;;;;;7.40;4.60;;;20.90;99.90;;;;;;5050403;28;20220;-62
2022/09/06 02:10:19;;;;;;;6.18;3.90;;;21.00;99.90;;;;;;5048127;28;20232;-62
2022/09/06 02:12:48;;;;;;;4.72;4.25;;;21.00;99.90;;;;;;5040611;28;20187;-62
2022/09/06 02:15:21;;;;;;;5.95;4.10;;;20.90;99.90;;;;;;5052064;28;20206;-62
2022/09/06 02:17:54;;;;;;;7.38;3.97;;;20.90;99.90;;;;;;5052270;28;20203;-63
2022/09/06 02:20:24;;;;;;;5.38;4.22;;;20.90;99.90;;;;;;5042065;28;20179;-61
2022/09/06 02:22:55;;;;;;;5.97;4.20;;;20.80;99.90;;;;;;5040777;28;20174;-62
2022/09/06 02:25:26;;;;;;;11.85;4.78;;;20.80;99.90;;;;;;5051353;28;20175;-62
2022/09/06 02:27:52;;;;;;;8.02;5.00;;;20.80;99.90;;;;;;5033337;28;20255;-62
2022/09/06 02:30:18;;;;;;;6.47;4.25;;;20.80;99.90;;;;;;5046197;28;20171;-63
2022/09/06 02:32:55;;;;;;;6.32;4.70;;;20.80;99.90;;;;;;5041483;28;20187;-61
2022/09/06 02:35:21;;;;;;;5.85;4.28;;;20.70;99.90;;;;;;5050289;28;20183;-62
2022/09/06 02:37:47;;;;;;;8.13;5.30;;;20.70;99.90;;;;;;5052813;28;20666;-62
2022/09/06 02:40:13;;;;;;;10.88;5.15;;;20.70;99.90;;;;;;5049834;28;20274;-62
2022/09/06 02:42:39;;;;;;;11.52;5.20;;;20.70;99.90;;;;;;5044016;28;20194;-61
2022/09/06 02:45:05;;;;;;;9.20;5.70;;;20.60;99.90;;;;;;5057157;28;20188;-62
2022/09/06 02:47:31;;;;;;;6.88;5.60;;;20.70;99.90;;;;;;5033147;28;20184;-63
2022/09/06 02:49:56;;;;;;;9.23;5.47;;;20.70;99.90;;;;;;5044108;28;20262;-62
2022/09/06 02:52:22;;;;;;;9.02;5.78;;;20.70;99.90;;;;;;5053798;28;20189;-62
2022/09/06 02:54:48;;;;;;;10.98;6.53;;;20.60;99.90;;;;;;5054013;28;20184;-63
2022/09/06 02:57:14;;;;;;;10.27;6.78;;;20.60;99.90;;;;;;5056230;28;20235;-62
2022/09/06 02:59:39;;;;;;;11.02;6.78;;;20.60;99.90;;;;;;5049976;28;20222;-62
2022/09/06 03:02:05;;;;;;;10.05;6.63;;;20.60;99.90;;;;;;5042188;28;20278;-62
2022/09/06 03:04:31;;;;;;;12.13;6.88;;;20.60;99.90;;;;;;5053273;28;20211;-62
2022/09/06 03:06:57;;;;;;;12.48;7.57;;;20.60;99.90;;;;;;5055427;28;20273;-62
2022/09/06 03:09:23;;;;;;;10.18;6.97;;;20.50;99.90;;;;;;5054092;28;20613;-62
2022/09/06 03:11:49;;;;;;;11.10;6.93;;;20.60;99.90;;;;;;5052802;28;20183;-62
2022/09/06 03:14:15;;;;;;;10.73;7.30;;;20.50;99.90;;;;;;5053350;28;20190;-62
2022/09/06 03:16:42;;;;;;;14.02;7.15;;;20.50;99.90;;;;;;5054829;28;20551;-63
2022/09/06 03:19:07;;;;;;;9.38;7.25;;;20.40;99.90;;;;;;5054681;28;20175;-64
2022/09/06 03:21:33;;;;;;;11.38;7.82;;;20.40;99.90;;;;;;5046617;28;21166;-62
2022/09/06 03:23:59;;;;;;;11.32;7.35;;;20.40;99.90;;;;;;5050889;28;20187;-62
2022/09/06 03:26:26;;;;;;;12.80;7.03;;;20.40;99.90;;;;;;5055814;28;20215;-62
2022/09/06 03:28:52;;;;;;;15.13;6.93;;;20.40;99.90;;;;;;5046723;28;20171;-62
2022/09/06 03:31:18;;;;;;;16.35;7.45;;;20.40;99.90;;;;;;5050918;28;20183;-62
2022/09/06 03:33:43;;;;;;;10.07;6.95;;;20.40;99.90;;;;;;5043142;28;20658;-62
2022/09/06 03:36:09;;;;;;;10.25;7.28;;;20.40;99.90;;;;;;5051901;28;20579;-63
2022/09/06 03:38:35;;;;;;;10.80;7.03;;;20.40;99.90;;;;;;5066296;28;20332;-62
2022/09/06 03:41:01;;;;;;;13.77;7.07;;;20.40;99.90;;;;;;5054407;28;20184;-62
2022/09/06 03:43:27;;;;;;;10.52;7.78;;;20.40;99.90;;;;;;5055589;28;20527;-63
2022/09/06 03:45:56;;;;;;;9.38;6.75;;;20.40;99.90;;;;;;5044554;28;20309;-62
2022/09/06 03:48:23;;;;;;;11.30;7.80;;;20.40;99.90;;;;;;5051258;28;20266;-63
2022/09/06 03:50:53;;;;;;;14.13;7.15;;;20.40;99.90;;;;;;5053843;28;20179;-65
2022/09/06 03:53:19;;;;;;;11.45;7.15;;;20.40;99.90;;;;;;5054557;28;20170;-63
2022/09/06 03:55:47;;;;;;;9.88;7.18;;;20.40;99.90;;;;;;5051599;28;20185;-65
2022/09/06 03:58:13;;;;;;;9.02;7.70;;;20.40;99.90;;;;;;5053743;28;20734;-63
2022/09/06 04:00:40;;;;;;;11.43;8.05;;;20.40;99.90;;;;;;5045536;28;20204;-64
2022/09/06 04:03:07;;;;;;;11.50;7.60;;;20.50;99.90;;;;;;5053300;28;20191;-63
2022/09/06 04:05:33;;;;;;;11.50;7.00;;;20.50;99.90;;;;;;5050022;28;20270;-62
2022/09/06 04:07:59;;;;;;;9.88;7.13;;;20.40;99.90;;;;;;5044701;28;20342;-62
2022/09/06 04:10:25;;;;;;;10.30;6.78;;;20.40;99.90;;;;;;5055218;28;20616;-63
2022/09/06 04:12:50;;;;;;;8.35;6.40;;;20.40;99.90;;;;;;5060641;28;20548;-63
2022/09/06 04:15:16;;;;;;;10.00;6.45;;;20.30;99.90;;;;;;5041716;28;20176;-63
2022/09/06 04:17:45;;;;;;;9.40;6.38;;;20.30;99.90;;;;;;5034937;28;20331;-64
2022/09/06 04:20:12;;;;;;;10.38;6.30;;;20.30;99.90;;;;;;5048800;28;20271;-63
2022/09/06 04:22:38;;;;;;;9.23;6.35;;;20.30;99.90;;;;;;5053111;28;20270;-65
2022/09/06 04:25:04;;;;;;;9.27;5.82;;;20.20;99.90;;;;;;5053353;28;20282;-64
2022/09/06 04:27:30;;;;;;;9.32;5.68;;;20.20;99.90;;;;;;5053911;28;20184;-63
2022/09/06 04:29:56;;;;;;;9.02;5.40;;;20.20;99.90;;;;;;5053329;28;20189;-63
2022/09/06 04:32:22;;;;;;;8.70;5.40;;;20.20;99.90;;;;;;5043093;28;20183;-63
2022/09/06 04:34:47;;;;;;;8.55;5.95;;;20.20;99.90;;;;;;5052862;28;20191;-64
2022/09/06 04:37:18;;;;;;;9.98;5.63;;;20.20;99.90;;;;;;5054677;28;20723;-64
2022/09/06 04:39:47;;;;;;;9.48;5.57;;;20.20;99.90;;;;;;5051994;28;20191;-63
2022/09/06 04:42:14;;;;;;;9.85;5.50;;;20.10;99.90;;;;;;5052468;28;20183;-63
2022/09/06 04:44:40;;;;;;;8.85;5.75;;;20.10;99.90;;;;;;5039109;28;20653;-63
2022/09/06 04:47:13;;;;;;;9.00;6.78;;;20.00;99.90;;;;;;5052004;28;20219;-64
2022/09/06 04:49:40;;;;;;;8.20;6.18;;;20.00;99.90;;;;;;5053980;28;20176;-61
2022/09/06 04:52:05;;;;;;;9.75;6.90;;;20.10;99.90;;;;;;5052721;28;20179;-61
2022/09/06 04:54:31;;;;;;;7.82;6.28;;;20.10;99.90;;;;;;5041757;28;20191;-61
2022/09/06 04:56:57;;;;;;;10.77;6.97;;;20.10;99.90;;;;;;5047543;28;20202;-63
2022/09/06 04:59:23;;;;;;;9.50;7.18;;;20.10;99.90;;;;;;5043340;28;20246;-65
2022/09/06 05:01:49;;;;;;;13.10;7.18;;;20.10;99.90;;;;;;5052401;28;20198;-63
2022/09/06 05:04:15;;;;;;;14.60;8.98;;;20.10;99.90;;;;;;5053173;28;20171;-63
2022/09/06 05:06:41;;;;;;;10.07;7.75;;;20.10;99.90;;;;;;5038349;28;20499;-63
2022/09/06 05:09:08;;;;;;;11.13;7.32;;;20.10;99.90;;;;;;5043247;28;20187;-62
2022/09/06 05:11:34;;;;;;;15.23;7.63;;;20.10;99.90;;;;;;5065084;28;20182;-67
2022/09/06 05:14:00;;;;;;;9.40;7.05;;;20.10;99.90;;;;;;5069571;28;20313;-67
2022/09/06 05:16:26;;;;;;;11.95;7.10;;;20.10;99.90;;;;;;5051638;28;20207;-68
2022/09/06 05:18:51;;;;;;;11.88;7.07;;;20.10;99.90;;;;;;5043635;28;20179;-66
2022/09/06 05:21:17;;;;;;;10.82;7.15;;;20.10;99.90;;;;;;5049183;28;20194;-67
2022/09/06 05:23:44;;;;;;;10.07;7.50;;;20.10;99.90;;;;;;5052842;28;20694;-66
2022/09/06 05:26:10;;;;;;;13.30;8.43;;;20.10;99.90;;;;;;5053482;28;20647;-67
2022/09/06 05:28:35;;;;;;;11.38;7.97;;;20.10;99.90;;;;;;5047440;28;20187;-67
2022/09/06 05:31:22;;;;;;;10.00;7.72;;;20.10;99.90;;;;;;5040748;28;20214;-67
2022/09/06 05:33:48;;;;;;;12.27;8.00;;;20.00;99.90;;;;;;5051624;28;20175;-67
2022/09/06 05:36:13;;;;;;;14.15;8.32;;;20.00;99.90;;;;;;5050919;28;20661;-67
2022/09/06 05:38:39;;;;;;;12.02;8.30;;;20.00;99.90;;;;;;5050348;28;20190;-64
2022/09/06 05:41:05;;;;;;;12.38;8.23;;;20.00;99.90;;;;;;5043532;28;20269;-67
2022/09/06 05:43:30;;;;;;;14.05;8.18;;;20.00;99.90;;;;;;5053728;28;20183;-68
2022/09/06 05:45:56;;;;;;;11.90;8.35;;;19.90;99.90;;;;;;5050874;28;20225;-68
2022/09/06 05:48:22;;;;;;;14.88;8.70;;;19.90;99.90;;;;;;5052535;28;20287;-67
2022/09/06 05:50:57;;;;;;;12.07;9.15;;;19.90;99.90;;;;;;5048554;28;20218;-67
2022/09/06 05:53:23;;;;;;;14.48;8.77;;;19.90;99.90;;;;;;5039076;28;20208;-67
2022/09/06 05:55:49;;;;;;;13.50;9.00;;;19.90;99.90;;;;;;5044701;28;20187;-67
2022/09/06 05:58:14;;;;;;;14.25;8.70;;;19.90;99.90;;;;;;5053156;28;20241;-68
2022/09/06 06:00:40;;;;;;;10.43;8.93;;;19.90;99.90;;;;;;5052597;28;20647;-70
2022/09/06 06:03:06;;;;;;;12.77;8.93;;;19.90;99.90;;;;;;5053168;28;20182;-67
2022/09/06 06:05:31;;;;;;;9.80;8.77;;;19.90;99.90;;;;;;5043613;28;20766;-67
2022/09/06 06:07:58;;;;;;;14.00;9.77;;;19.90;99.90;;;;;;5039075;28;20194;-67
2022/09/06 06:10:24;;;;;;;15.32;9.75;;;19.90;99.90;;;;;;5053045;28;20186;-67
2022/09/06 06:12:49;;;;;;;13.77;10.10;;;19.90;99.90;;;;;;5050259;28;20180;-67
2022/09/06 06:15:15;;;;;;;17.52;10.25;;;19.90;99.90;;;;;;5044146;28;20643;-68
2022/09/06 06:17:41;;;;;;;14.30;10.82;;;19.90;99.90;;;;;;5038515;28;20689;-68
2022/09/06 06:20:07;;;;;;;17.50;10.77;;;19.90;99.90;;;;;;5052382;28;20187;-67
2022/09/06 06:22:33;;;;;;;15.65;10.90;;;19.90;99.90;;;;;;5052274;28;20242;-68
2022/09/06 06:24:58;;;;;;;18.17;10.93;;;19.90;99.90;;;;;;5053237;28;20199;-67
2022/09/06 06:27:24;;;;;;;15.90;11.30;;;20.00;99.90;;;;;;5047211;28;20184;-67
2022/09/06 06:29:51;;;;;;;14.18;11.18;;;19.90;99.90;;;;;;5042420;28;20202;-66
2022/09/06 06:32:16;;;;;;;19.15;14.55;;;20.00;99.90;;;;;;5045608;28;20229;-68
2022/09/06 06:34:42;;;;;;;19.70;12.13;;;20.00;99.90;;;;;;5053230;28;20596;-72
2022/09/06 06:37:08;;;;;;;16.50;11.48;;;20.00;99.90;;;;;;5040573;28;20210;-67
2022/09/06 06:39:33;;;;;;;20.08;12.18;;;20.00;99.90;;;;;;5047928;28;20191;-67
2022/09/06 06:41:59;;;;;;;17.20;12.52;;;20.10;99.90;;;;;;5052776;28;20213;-68
2022/09/06 06:44:36;;;;;;;20.08;12.50;;;20.10;99.90;;;;;;5049115;28;20168;-68
2022/09/06 06:47:02;;;;;;;15.80;12.70;;;20.10;99.90;;;;;;5040992;28;20241;-69
2022/09/06 06:49:28;;;;;;;18.55;13.00;;;20.20;99.90;;;;;;5055630;28;20611;-68
2022/09/06 06:51:54;;;;;;;17.88;12.80;;;20.10;99.90;;;;;;5052477;28;20526;-71
2022/09/06 06:54:19;;;;;;;19.30;12.95;;;20.20;99.90;;;;;;5055225;28;20250;-69
2022/09/06 06:56:45;;;;;;;15.90;12.70;;;20.20;99.90;;;;;;5070500;28;20658;-71
2022/09/06 06:59:11;;;;;;;22.90;13.10;;;20.20;99.90;;;;;;5055781;28;20234;-67
2022/09/06 07:01:37;;;;;;;15.15;13.00;;;20.30;99.90;;;;;;5054696;28;20183;-70
2022/09/06 07:04:04;;;;;;;21.40;13.43;;;20.30;99.90;;;;;;5053958;28;20631;-70
2022/09/06 07:06:30;;;;;;;18.50;12.68;;;20.40;99.90;;;;;;5055395;28;20215;-73
2022/09/06 07:08:57;;;;;;;16.25;12.57;;;20.40;99.90;;;;;;5053902;28;20186;-70
2022/09/06 07:11:23;;;;;;;17.58;12.60;;;20.50;99.90;;;;;;5065575;28;20170;-71
2022/09/06 07:13:49;;;;;;;17.02;12.63;;;20.50;99.90;;;;;;5055392;28;20649;-72
2022/09/06 07:16:21;;;;;;;21.33;13.13;;;20.60;99.90;;;;;;5056020;28;20183;-72
2022/09/06 07:18:51;;;;;;;15.35;12.05;;;20.60;99.90;;;;;;5054407;28;20245;-72
2022/09/06 07:21:19;;;;;;;18.60;12.02;;;20.60;99.90;;;;;;5046611;28;20187;-73
2022/09/06 07:23:45;;;;;;;15.40;10.88;;;20.70;99.90;;;;;;5050815;28;20194;-73
2022/09/06 07:26:16;;;;;;;13.02;9.60;;;20.70;99.90;;;;;;5054820;28;20179;-72
2022/09/06 07:28:42;;;;;;;12.68;9.65;;;20.70;99.90;;;;;;5054416;28;20179;-71
2022/09/06 07:31:09;;;;;;;14.40;9.25;;;20.80;99.90;;;;;;5051524;28;20227;-71
2022/09/06 07:33:36;;;;;;;13.35;10.57;;;20.80;99.90;;;;;;5048307;28;20186;-69
2022/09/06 07:36:03;;;;;;;14.65;10.50;;;20.90;99.90;;;;;;5053605;28;20175;-71
2022/09/06 07:38:30;;;;;;;13.25;10.30;;;20.90;99.90;;;;;;5044389;28;20962;-72
2022/09/06 07:40:58;;;;;;;12.68;9.82;;;20.90;99.90;;;;;;5049663;28;20183;-72
2022/09/06 07:43:24;;;;;;;13.55;10.55;;;21.00;99.90;;;;;;5041925;28;20282;-72
2022/09/06 07:46:11;;;;;;;16.52;11.23;;;21.00;99.90;;;;;;5040607;28;20183;-73
2022/09/06 07:48:39;;;;;;;13.30;10.48;;;21.00;99.90;;;;;;5050933;28;20179;-73
2022/09/06 07:51:10;;;;;;;13.98;10.40;;;21.10;99.90;;;;;;5051862;28;20168;-73
2022/09/06 07:53:37;;;;;;;15.30;10.82;;;21.10;99.90;;;;;;5044741;28;20175;-69
2022/09/06 07:56:05;;;;;;;18.08;10.35;;;21.20;99.90;;;;;;5046001;28;20674;-71
2022/09/06 07:58:32;;;;;;;15.10;9.98;;;21.20;99.90;;;;;;5057356;28;20315;-72
2022/09/06 08:01:26;;;;;;;12.07;10.35;;;21.30;99.90;;;;;;5045188;28;20206;-72
2022/09/06 08:03:52;;;;;;;15.50;10.68;;;21.30;99.90;;;;;;5044877;28;20191;-68
2022/09/06 08:06:19;;;;;;;13.98;9.65;;;21.30;99.90;;;;;;5042947;28;20191;-71
2022/09/06 08:08:45;;;;;;;13.82;10.32;;;21.40;99.90;;;;;;5048535;28;20175;-68
2022/09/06 08:11:11;;;;;;;13.68;10.73;;;21.40;99.90;;;;;;5043906;28;20195;-70
2022/09/06 08:13:37;;;;;;;13.23;10.00;;;21.50;99.90;;;;;;5045077;28;20245;-68
2022/09/06 08:16:10;;;;;;;13.98;10.25;;;21.60;99.90;;;;;;5045659;28;20191;-68
2022/09/06 08:18:36;;;;;;;13.40;10.60;;;21.60;99.90;;;;;;5053761;28;20254;-68
2022/09/06 08:21:13;;;;;;;14.80;10.02;;;21.70;99.90;;;;;;5053881;28;20199;-67
2022/09/06 08:24:00;;;;;;;13.50;10.90;;;21.80;99.90;;;;;;5050180;28;20183;-67
2022/09/06 08:26:28;;;;;;;14.50;10.20;;;21.90;99.90;;;;;;5059204;28;20201;-67
2022/09/06 08:28:57;;;;;;;17.38;10.75;;;22.00;99.90;;;;;;5050399;28;20194;-67
2022/09/06 08:31:23;;;;;;;14.27;10.13;;;22.10;99.90;;;;;;5053317;28;20176;-68
2022/09/06 08:33:50;;;;;;;14.45;9.65;;;22.20;99.90;;;;;;5053384;28;20210;-68
2022/09/06 08:36:15;;;;;;;11.82;9.93;;;22.20;99.90;;;;;;5053014;28;20178;-67
2022/09/06 08:38:41;;;;;;;13.27;8.80;;;22.30;99.90;;;;;;5049158;28;20612;-66
2022/09/06 08:41:10;;;;;;;15.52;8.60;;;22.30;99.90;;;;;;5043187;28;20237;-66
2022/09/06 08:43:36;;;;;;;12.02;8.55;;;22.30;99.90;;;;;;5042339;28;20647;-66
2022/09/06 08:46:03;;;;;;;12.57;8.57;;;22.30;99.90;;;;;;5041826;28;20188;-67
2022/09/06 08:48:35;;;;;;;11.68;8.15;;;22.30;99.90;;;;;;5045311;28;20209;-68
2022/09/06 08:51:29;;;;;;;12.73;8.40;;;22.40;99.90;;;;;;5048133;28;20203;-68
2022/09/06 08:54:04;;;;;;;12.65;7.40;;;22.40;99.90;;;;;;5051870;28;20184;-68
2022/09/06 08:56:56;;;;;;;10.90;8.57;;;22.50;99.90;;;;;;5054712;28;20175;-68
2022/09/06 08:59:22;;;;;;;13.35;9.00;;;22.60;99.90;;;;;;5034671;28;20313;-64
2022/09/06 09:02:00;;;;;;;21.00;8.18;;;22.70;99.90;;;;;;5058987;28;20187;-67
2022/09/06 09:04:28;;;;;;;10.75;7.78;;;22.80;99.90;;;;;;5043189;28;20179;-67
2022/09/06 09:07:19;;;;;;;12.30;7.80;;;22.90;99.90;;;;;;5052957;28;20240;-66
2022/09/06 09:09:45;;;;;;;11.55;8.20;;;23.10;99.90;;;;;;5043931;28;20494;-66
2022/09/06 09:12:14;;;;;;;10.57;8.18;;;23.20;99.90;;;;;;5042963;28;20195;-66
2022/09/06 09:14:43;;;;;;;10.05;7.78;;;23.30;99.90;;;;;;5043246;28;20169;-67
2022/09/06 09:17:19;;;;;;;13.52;9.70;;;23.40;99.90;;;;;;5052701;28;20210;-66
2022/09/06 09:19:45;;;;;;;12.55;8.75;;;23.40;99.90;;;;;;5053692;28;20182;-66
2022/09/06 09:22:16;;;;;;;10.38;8.65;;;23.50;99.90;;;;;;5049743;28;20175;-66
2022/09/06 09:24:43;;;;;;;12.00;8.57;;;23.60;99.90;;;;;;5049542;28;20190;-65
2022/09/06 09:27:11;;;;;;;13.80;10.98;;;23.70;99.90;;;;;;5042237;28;20179;-66
2022/09/06 09:29:52;;;;;;;14.57;10.02;;;23.70;99.90;;;;;;5053045;28;20229;-68
2022/09/06 09:32:38;;;;;;;16.52;13.93;;;23.70;99.90;;;;;;5052483;28;20179;-67
2022/09/06 09:35:17;;;;;;;17.73;14.63;;;23.70;99.90;;;;;;5041424;28;20274;-66
2022/09/06 09:37:44;;;;;;;15.70;13.55;;;23.80;99.90;;;;;;5045739;28;20814;-66
2022/09/06 09:40:19;;;;;;;12.43;10.75;;;23.80;99.90;;;;;;5048379;28;20210;-66
2022/09/06 09:42:44;;;;;;;12.32;8.98;;;23.80;99.90;;;;;;5048957;28;20175;-66
2022/09/06 09:45:20;;;;;;;12.27;8.45;;;23.80;99.90;;;;;;5040852;28;20666;-66
2022/09/06 09:47:46;;;;;;;11.70;8.63;;;23.90;99.90;;;;;;5049482;28;20186;-67
2022/09/06 09:50:33;;;;;;;12.27;9.02;;;23.90;99.90;;;;;;5042085;28;20175;-66
2022/09/06 09:53:10;;;;;;;12.13;9.20;;;23.90;99.90;;;;;;5041923;28;20171;-65
2022/09/06 09:55:36;;;;;;;12.52;9.15;;;23.90;99.90;;;;;;5037645;28;20284;-66
2022/09/06 09:58:02;;;;;;;12.95;9.25;;;24.00;99.90;;;;;;5051991;28;20234;-66
2022/09/06 10:00:34;;;;;;;9.40;8.38;;;24.10;99.90;;;;;;5051655;28;20186;-67
2022/09/06 10:03:10;;;;;;;11.15;8.85;;;24.10;99.90;;;;;;5042140;28;20175;-63
2022/09/06 10:05:35;;;;;;;11.82;9.07;;;24.10;99.90;;;;;;5038864;28;20187;-63
2022/09/06 10:08:01;;;;;;;12.95;10.30;;;24.20;99.90;;;;;;5043159;28;20196;-63
2022/09/06 10:10:38;;;;;;;13.88;10.45;;;24.20;99.90;;;;;;5048763;28;20187;-63
2022/09/06 10:13:25;;;;;;;12.93;9.95;;;24.30;99.90;;;;;;5039233;28;20187;-64
2022/09/06 10:15:52;;;;;;;13.20;10.18;;;24.30;99.90;;;;;;5041924;28;20183;-63
2022/09/06 10:18:36;;;;;;;13.27;10.80;;;24.20;99.90;;;;;;5034547;28;20238;-62
2022/09/06 10:21:09;;;;;;;15.85;11.40;;;24.20;99.90;;;;;;5048944;28;20673;-63
2022/09/06 10:23:41;;;;;;;16.73;11.20;;;24.20;99.90;;;;;;5049388;28;20665;-65
2022/09/06 10:26:27;;;;;;;16.08;11.13;;;24.30;99.90;;;;;;5062419;28;20175;-62
2022/09/06 10:29:03;;;;;;;18.20;12.00;;;24.40;99.90;;;;;;5040099;28;20225;-62
2022/09/06 10:31:34;;;;;;;14.48;11.07;;;24.40;99.90;;;;;;5039782;28;20237;-62
2022/09/06 10:34:15;;;;;;;13.98;10.98;;;24.40;99.90;;;;;;5050233;28;20209;-62
2022/09/06 10:37:00;;;;;;;14.45;11.15;;;24.50;99.90;;;;;;5048775;28;20210;-61
2022/09/06 10:39:28;;;;;;;15.95;10.80;;;24.60;99.90;;;;;;5038637;28;20182;-62
2022/09/06 10:42:14;;;;;;;16.50;10.38;;;24.70;99.90;;;;;;5058605;28;20180;-63
2022/09/06 10:45:07;;;;;;;11.77;10.30;;;24.80;99.90;;;;;;5040475;28;20179;-62
2022/09/06 10:47:55;;;;;;;14.63;10.02;;;24.90;99.90;;;;;;5043955;28;20183;-62
2022/09/06 10:50:29;;;;;;;15.43;10.40;;;25.00;99.90;;;;;;5044214;28;20199;-62
2022/09/06 10:53:04;;;;;;;13.90;10.30;;;25.10;99.90;;;;;;5065963;28;20210;-62
2022/09/06 10:55:31;;;;;;;15.73;10.82;;;25.20;99.90;;;;;;5036138;28;20653;-62
2022/09/06 10:58:03;;;;;;;14.35;10.55;;;25.30;99.90;;;;;;5042390;28;20254;-62
2022/09/06 11:00:36;;;;;;;17.95;12.02;;;25.40;99.80;;;;;;5041148;28;20181;-62
2022/09/06 11:03:15;;;;;;;18.42;11.45;;;25.40;99.50;;;;;;5046153;28;20179;-62
2022/09/06 11:05:50;;;;;;;13.88;10.18;;;25.40;99.30;;;;;;5052071;28;20225;-62
2022/09/06 11:08:35;;;;;;;13.27;9.20;;;25.40;99.40;;;;;;5048394;28;20261;-63
2022/09/06 11:11:08;;;;;;;10.40;6.47;;;25.30;99.20;;;;;;5053634;28;20186;-62
2022/09/06 11:13:34;;;;;;;10.95;6.20;;;25.30;98.70;;;;;;5032452;28;21938;-62
2022/09/06 11:16:28;;;;;;;7.53;5.80;;;25.20;98.30;;;;;;5045788;28;20184;-62
2022/09/06 11:19:09;;;;;;;8.20;5.63;;;25.10;97.60;;;;;;5043310;28;20217;-62
2022/09/06 11:22:22;;;;;;;13.13;6.47;;;25.10;97.70;;;;;;5052255;28;20175;-62
2022/09/06 11:25:20;;;;;;;9.27;6.57;;;25.10;97.90;;;;;;5060451;28;20179;-63
2022/09/06 11:27:52;;;;;;;10.55;6.90;;;25.20;98.20;;;;;;5054699;28;20190;-62
2022/09/06 11:30:18;;;;;;;11.50;7.40;;;25.20;98.20;;;;;;5055926;28;20672;-62
2022/09/06 11:32:48;;;;;;;10.18;7.35;;;25.20;98.20;;;;;;5054975;28;20191;-62
2022/09/06 11:35:31;;;;;;;11.07;6.80;;;25.20;98.00;;;;;;5037266;28;20186;-62
2022/09/06 11:38:15;;;;;;;12.32;7.78;;;25.30;97.70;;;;;;5052589;28;20208;-63
2022/09/06 11:41:16;;;;;;;13.10;7.75;;;25.30;97.30;;;;;;5069042;28;20190;-63
2022/09/06 11:43:50;;;;;;;12.48;8.23;;;25.40;96.80;;;;;;4957954;28;20292;-62
2022/09/06 11:46:34;;;;;;;16.95;8.30;;;25.40;97.10;;;;;;5032713;28;20198;-62
2022/09/06 11:49:03;;;;;;;15.85;11.52;;;25.40;97.20;;;;;;5067442;28;20665;-62
2022/09/06 11:51:40;;;;;;;17.30;13.27;;;25.50;97.30;;;;;;5044498;28;20187;-62
2022/09/06 11:54:23;;;;;;;16.33;9.75;;;25.70;97.30;;;;;;5053670;28;20187;-62
2022/09/06 11:56:57;;;;;;;15.57;9.85;;;25.80;96.90;;;;;;5044242;28;20211;-61
2022/09/06 11:59:42;;;;;;;18.75;9.85;;;25.80;96.90;;;;;;5035190;28;20216;-62
2022/09/06 12:02:37;;;;;;;12.02;9.68;;;25.80;96.80;;;;;;5039109;28;20203;-62
2022/09/06 12:05:03;;;;;;;12.98;8.10;;;25.80;97.10;;;;;;5053527;28;20171;-62
2022/09/06 12:07:31;;;;;;;11.23;6.75;;;25.80;97.00;;;;;;5043481;28;20543;-62
2022/09/06 12:10:00;;;;;;;10.75;7.35;;;25.80;96.70;;;;;;5049798;28;20190;-62
2022/09/06 12:12:45;;;;;;;13.27;7.07;;;25.90;96.60;;;;;;5061824;28;20255;-62
2022/09/06 12:15:43;;;;;;;9.95;5.95;;;26.00;96.30;;;;;;5037310;28;20611;-62
2022/09/06 12:18:09;;;;;;;11.80;6.32;;;26.10;95.50;;;;;;5039924;28;20203;-63
2022/09/06 12:20:47;;;;;;;10.88;5.95;;;26.20;95.50;;;;;;5048993;28;20638;-62
2022/09/06 12:23:34;;;;;;;8.68;5.50;;;26.10;95.20;;;;;;5048889;28;20210;-62
2022/09/06 12:26:11;;;;;;;11.40;6.07;;;26.20;94.90;;;;;;5053322;28;20183;-63
2022/09/06 12:28:46;;;;;;;10.52;6.30;;;26.30;95.10;;;;;;5060429;28;20221;-62
2022/09/06 12:31:32;;;;;;;11.32;7.47;;;26.30;94.80;;;;;;5053878;28;20182;-62
2022/09/06 12:34:04;;;;;;;9.68;6.60;;;26.30;94.60;;;;;;5053807;28;20179;-62
2022/09/06 12:36:30;;;;;;;10.80;5.93;;;26.30;94.80;;;;;;5056872;28;20179;-62
2022/09/06 12:39:13;;;;;;;10.70;6.53;;;26.30;94.70;;;;;;5047670;28;20674;-62
2022/09/06 12:41:43;;;;;;;11.02;5.95;;;26.30;94.70;;;;;;5033055;28;20190;-63
2022/09/06 12:44:11;;;;;;;8.32;5.80;;;26.20;94.60;;;;;;5042686;28;20186;-62
2022/09/06 12:46:43;;;;;;;11.60;6.05;;;26.30;95.00;;;;;;5044315;28;20186;-63
2022/09/06 12:49:11;;;;;;;10.13;6.22;;;26.40;94.50;;;;;;5049734;28;20175;-62
2022/09/06 12:51:39;;;;;;;14.15;5.85;;;26.50;94.70;;;;;;5040711;28;20190;-63
2022/09/06 12:54:19;;;;;;;9.63;4.82;;;26.70;94.00;;;;;;5045173;28;20194;-62
2022/09/06 12:56:44;;;;;;;8.23;4.40;;;26.90;93.80;;;;;;5050352;28;20694;-62
2022/09/06 12:59:23;;;;;;;6.82;4.60;;;27.10;93.00;;;;;;5052581;28;20253;-62